createdAt,value
2018-03-24T00:01:13.957Z,12.73
2018-03-24T00:03:42.119Z,13.37
2018-03-24T00:06:10.307Z,12.63
2018-03-24T00:08:38.529Z,13.37
2018-03-24T00:11:06.645Z,13.00
2018-03-24T00:13:34.771Z,12.40
2018-03-24T00:16:02.955Z,12.57
2018-03-24T00:18:31.065Z,12.67
2018-03-24T00:20:59.163Z,13.83
2018-03-24T00:23:27.273Z,13.23
2018-03-24T00:25:55.403Z,13.77
2018-03-24T00:28:23.742Z,14.67
2018-03-24T00:30:51.903Z,14.97
2018-03-24T00:33:20.207Z,14.90
2018-03-24T00:35:48.342Z,14.87
2018-03-24T00:38:16.613Z,14.90
2018-03-24T00:40:44.853Z,15.13
2018-03-24T00:43:13.107Z,15.80
2018-03-24T00:45:41.360Z,16.23
2018-03-24T00:48:09.476Z,17.07
2018-03-24T00:50:37.790Z,17.03
2018-03-24T00:53:06.686Z,17.30
2018-03-24T00:55:34.802Z,16.93
2018-03-24T00:58:02.934Z,16.87
2018-03-24T01:00:31.044Z,18.13
2018-03-24T01:02:59.158Z,17.20
2018-03-24T01:05:27.314Z,19.47
2018-03-24T01:07:55.496Z,19.57
2018-03-24T01:10:23.638Z,18.90
2018-03-24T01:12:51.738Z,19.80
2018-03-24T01:15:19.889Z,20.97
2018-03-24T01:17:48.027Z,22.00
2018-03-24T01:20:16.134Z,21.53
2018-03-24T01:22:44.262Z,21.03
2018-03-24T01:25:12.399Z,23.47
2018-03-24T01:27:40.674Z,22.23
2018-03-24T01:30:08.848Z,21.87
2018-03-24T01:32:37.099Z,21.00
2018-03-24T01:35:05.325Z,24.83
2018-03-24T01:37:33.591Z,23.50
2018-03-24T01:40:01.801Z,23.27
2018-03-24T01:42:30.037Z,25.07
2018-03-24T01:44:58.703Z,24.30
2018-03-24T01:47:27.037Z,23.50
2018-03-24T01:49:55.201Z,27.57
2018-03-24T01:52:23.325Z,26.83
2018-03-24T01:54:51.445Z,25.53
2018-03-24T01:57:28.412Z,28.13
2018-03-24T01:59:56.619Z,29.03
2018-03-24T02:02:25.113Z,30.27
2018-03-24T02:04:53.235Z,30.20
2018-03-24T02:07:21.347Z,31.67
2018-03-24T02:09:49.515Z,31.47
2018-03-24T02:12:17.661Z,34.13
2018-03-24T02:14:45.801Z,33.37
2018-03-24T02:17:13.947Z,34.37
2018-03-24T02:19:42.249Z,34.90
2018-03-24T02:22:10.870Z,37.10
2018-03-24T02:27:45.331Z,37.13
2018-03-24T02:30:13.569Z,38.43
2018-03-24T02:32:41.764Z,36.50
2018-03-24T02:35:10.844Z,37.17
2018-03-24T02:37:39.188Z,36.73
2018-03-24T02:40:07.304Z,35.20
2018-03-24T02:42:35.444Z,33.40
2018-03-24T02:45:03.581Z,32.57
2018-03-24T02:47:32.339Z,33.57
2018-03-24T02:50:00.518Z,33.43
2018-03-24T02:52:29.396Z,31.90
2018-03-24T02:54:57.525Z,30.83
2018-03-24T02:57:25.645Z,29.37
2018-03-24T02:59:53.764Z,28.83
2018-03-24T03:02:21.946Z,31.17
2018-03-24T03:04:54.404Z,29.47
2018-03-24T03:07:22.512Z,28.97
2018-03-24T03:09:50.762Z,28.00
2018-03-24T03:12:18.883Z,28.13
2018-03-24T03:14:46.987Z,26.67
2018-03-24T03:17:15.130Z,27.57
2018-03-24T03:19:43.290Z,27.13
2018-03-24T03:22:11.411Z,27.43
2018-03-24T03:24:39.525Z,27.97
2018-03-24T03:27:07.649Z,30.63
2018-03-24T03:29:35.788Z,31.00
2018-03-24T03:32:18.799Z,29.87
2018-03-24T03:34:46.925Z,27.93
2018-03-24T03:37:15.049Z,32.30
2018-03-24T03:39:43.221Z,30.90
2018-03-24T03:42:11.383Z,30.07
2018-03-24T03:44:39.515Z,29.37
2018-03-24T03:47:07.655Z,29.60
2018-03-24T03:49:36.563Z,28.93
2018-03-24T03:52:04.720Z,27.80
2018-03-24T03:54:32.870Z,31.33
2018-03-24T03:57:01.087Z,30.47
2018-03-24T03:59:29.215Z,30.30
2018-03-24T04:02:01.624Z,30.77
2018-03-24T04:04:29.770Z,31.00
2018-03-24T04:07:02.232Z,28.93
2018-03-24T04:09:30.451Z,27.90
2018-03-24T04:11:58.624Z,29.30
2018-03-24T04:14:27.504Z,28.97
2018-03-24T04:16:55.632Z,28.93
2018-03-24T04:19:23.849Z,29.93
2018-03-24T04:21:51.956Z,30.63
2018-03-24T04:24:20.096Z,29.03
2018-03-24T04:26:48.218Z,30.10
2018-03-24T04:29:16.346Z,32.63
2018-03-24T04:31:44.495Z,29.77
2018-03-24T04:34:12.641Z,29.70
2018-03-24T04:36:40.858Z,30.23
2018-03-24T04:39:08.977Z,30.00
2018-03-24T04:41:37.097Z,29.73
2018-03-24T04:44:05.229Z,29.37
2018-03-24T04:46:33.593Z,29.93
2018-03-24T04:49:01.826Z,28.23
2018-03-24T04:51:34.306Z,31.73
2018-03-24T04:54:03.216Z,30.60
2018-03-24T04:56:31.378Z,29.63
2018-03-24T04:58:59.975Z,32.23
2018-03-24T05:01:28.108Z,28.20
2018-03-24T05:03:56.269Z,30.03
2018-03-24T05:06:24.421Z,28.37
2018-03-24T05:08:52.551Z,27.23
2018-03-24T05:11:20.844Z,29.60
2018-03-24T05:13:53.337Z,30.93
2018-03-24T05:16:21.478Z,32.60
2018-03-24T05:18:49.659Z,36.37
2018-03-24T05:21:18.142Z,40.30
2018-03-24T05:23:50.887Z,43.83
2018-03-24T05:26:19.083Z,47.37
2018-03-24T05:28:47.268Z,50.73
2018-03-24T05:31:15.413Z,50.33
2018-03-24T05:33:47.302Z,51.60
2018-03-24T05:36:24.644Z,48.33
2018-03-24T05:38:52.800Z,53.17
2018-03-24T05:41:20.940Z,53.17
2018-03-24T05:43:49.070Z,48.80
2018-03-24T05:46:19.348Z,48.00
2018-03-24T05:48:47.990Z,49.70
2018-03-24T05:51:16.205Z,49.50
2018-03-24T05:53:44.622Z,44.20
2018-03-24T05:56:12.829Z,46.00
2018-03-24T05:58:40.934Z,45.10
2018-03-24T06:01:09.137Z,42.70
2018-03-24T06:03:37.421Z,40.97
2018-03-24T06:06:05.695Z,42.67
2018-03-24T06:08:34.226Z,44.70
2018-03-24T06:11:03.179Z,47.17
2018-03-24T06:13:31.294Z,62.27
2018-03-24T06:15:59.418Z,58.97
2018-03-24T06:18:27.567Z,55.20
2018-03-24T06:20:55.669Z,59.70
2018-03-24T06:23:23.769Z,57.63
2018-03-24T06:25:51.884Z,58.97
2018-03-24T06:28:20.021Z,60.97
2018-03-24T06:30:52.644Z,59.93
2018-03-24T06:33:21.441Z,59.20
2018-03-24T06:35:49.581Z,57.23
2018-03-24T06:38:17.780Z,57.47
2018-03-24T06:40:45.912Z,58.73
2018-03-24T06:43:14.836Z,56.07
2018-03-24T06:45:43.652Z,52.73
2018-03-24T06:48:11.786Z,53.03
2018-03-24T06:50:39.935Z,53.00
2018-03-24T06:53:08.066Z,49.97
2018-03-24T06:55:36.214Z,49.20
2018-03-24T06:58:04.338Z,52.13
2018-03-24T07:00:32.609Z,46.87
2018-03-24T07:03:00.750Z,47.97
2018-03-24T07:05:28.892Z,43.33
2018-03-24T07:07:56.997Z,39.17
2018-03-24T07:10:25.118Z,34.00
2018-03-24T07:12:53.344Z,31.30
2018-03-24T07:15:21.466Z,30.13
2018-03-24T07:17:49.593Z,25.50
2018-03-24T07:20:17.712Z,27.77
2018-03-24T07:22:49.637Z,27.33
2018-03-24T07:25:17.748Z,24.30
2018-03-24T07:27:46.640Z,22.40
2018-03-24T07:30:14.761Z,21.10
2018-03-24T07:32:42.910Z,19.63
2018-03-24T07:35:11.399Z,17.73
2018-03-24T07:37:39.515Z,17.67
2018-03-24T07:40:07.625Z,16.13
2018-03-24T07:42:35.823Z,16.63
2018-03-24T07:45:03.957Z,15.03
2018-03-24T07:47:32.861Z,14.40
2018-03-24T07:50:01.057Z,14.50
2018-03-24T07:52:36.141Z,15.17
2018-03-24T07:55:04.285Z,13.90
2018-03-24T07:57:32.395Z,12.43
2018-03-24T08:00:00.579Z,13.63
2018-03-24T08:02:29.505Z,12.20
2018-03-24T08:04:57.620Z,13.00
2018-03-24T08:07:25.723Z,13.43
2018-03-24T08:09:53.841Z,14.13
2018-03-24T08:12:25.404Z,12.50
2018-03-24T08:14:53.558Z,10.83
2018-03-24T08:17:22.386Z,12.00
2018-03-24T08:19:50.510Z,11.60
2018-03-24T08:22:19.730Z,10.80
2018-03-24T08:24:47.856Z,10.13
2018-03-24T08:27:20.334Z,10.03
2018-03-24T08:29:48.484Z,8.90
2018-03-24T08:32:16.580Z,10.93
2018-03-24T08:34:48.874Z,8.33
2018-03-24T08:37:16.972Z,7.80
2018-03-24T08:39:45.084Z,7.07
2018-03-24T08:42:14.716Z,7.97
2018-03-24T08:44:43.861Z,7.37
2018-03-24T08:47:16.175Z,6.53
2018-03-24T08:49:48.185Z,6.20
2018-03-24T08:52:16.323Z,6.77
2018-03-24T08:54:44.445Z,6.80
2018-03-24T08:57:12.574Z,6.67
2018-03-24T08:59:40.695Z,6.27
2018-03-24T09:02:09.389Z,6.77
2018-03-24T09:04:37.502Z,6.50
2018-03-24T09:07:05.725Z,6.67
2018-03-24T09:09:34.262Z,6.87
2018-03-24T09:12:03.310Z,7.47
2018-03-24T09:14:31.739Z,7.13
2018-03-24T09:16:59.850Z,6.53
2018-03-24T09:19:27.968Z,5.93
2018-03-24T09:21:56.095Z,6.00
2018-03-24T09:24:24.233Z,6.13
2018-03-24T09:26:52.360Z,5.83
2018-03-24T09:29:21.286Z,5.77
2018-03-24T09:31:49.395Z,6.23
2018-03-24T09:34:21.339Z,5.40
2018-03-24T09:36:49.474Z,5.37
2018-03-24T09:39:17.616Z,5.77
2018-03-24T09:41:45.754Z,6.13
2018-03-24T09:44:13.898Z,6.80
2018-03-24T09:46:42.022Z,6.60
2018-03-24T09:49:10.141Z,6.10
2018-03-24T09:51:38.233Z,5.80
2018-03-24T09:54:06.359Z,5.83
2018-03-24T09:56:34.503Z,6.70
2018-03-24T09:59:02.636Z,6.67
2018-03-24T10:01:30.813Z,6.80
2018-03-24T10:03:58.971Z,6.60
2018-03-24T10:06:31.053Z,7.63
2018-03-24T10:08:59.188Z,7.57
2018-03-24T10:11:35.652Z,6.70
2018-03-24T10:14:03.818Z,6.57
2018-03-24T10:16:31.945Z,7.47
2018-03-24T10:19:00.397Z,7.40
2018-03-24T10:24:33.389Z,8.53
2018-03-24T10:27:01.519Z,7.93
2018-03-24T10:29:29.627Z,7.07
2018-03-24T10:31:57.807Z,6.73
2018-03-24T10:34:26.061Z,8.30
2018-03-24T10:36:54.309Z,8.13
2018-03-24T10:39:22.560Z,8.03
2018-03-24T10:41:54.680Z,8.33
2018-03-24T10:44:22.957Z,7.77
2018-03-24T10:46:55.032Z,8.70
2018-03-24T10:49:23.277Z,7.83
2018-03-24T10:51:51.502Z,7.90
2018-03-24T10:54:20.442Z,8.23
2018-03-24T10:56:49.210Z,8.37
2018-03-24T10:59:17.406Z,8.67
2018-03-24T11:01:46.362Z,8.13
2018-03-24T11:04:14.522Z,8.20
2018-03-24T11:06:44.057Z,8.67
2018-03-24T11:09:12.932Z,8.83
2018-03-24T11:11:41.082Z,8.30
2018-03-24T11:14:09.200Z,9.70
2018-03-24T11:16:37.326Z,9.90
2018-03-24T11:19:05.480Z,9.23
2018-03-24T11:21:33.661Z,8.63
2018-03-24T11:24:01.814Z,9.10
2018-03-24T11:26:29.950Z,9.13
2018-03-24T11:29:02.596Z,9.03
2018-03-24T11:31:31.501Z,9.03
2018-03-24T11:33:59.649Z,8.70
2018-03-24T11:36:27.836Z,9.03
2018-03-24T11:38:56.762Z,9.53
2018-03-24T11:41:24.975Z,9.30
2018-03-24T11:43:53.126Z,9.83
2018-03-24T11:46:21.257Z,8.73
2018-03-24T11:48:53.221Z,8.40
2018-03-24T11:51:21.465Z,8.37
2018-03-24T11:53:50.325Z,7.00
2018-03-24T11:56:19.312Z,7.43
2018-03-24T11:58:47.925Z,8.20
2018-03-24T12:01:16.124Z,8.63
2018-03-24T12:03:45.013Z,8.77
2018-03-24T12:06:14.943Z,9.43
2018-03-24T12:08:43.837Z,8.77
2018-03-24T12:11:12.723Z,7.63
2018-03-24T12:13:41.617Z,7.43
2018-03-24T12:16:10.573Z,7.83
2018-03-24T12:18:38.780Z,8.50
2018-03-24T12:21:07.814Z,8.10
2018-03-24T12:23:36.111Z,8.37
2018-03-24T12:26:04.241Z,8.10
2018-03-24T12:28:37.824Z,8.07
2018-03-24T12:31:05.969Z,8.53
2018-03-24T12:33:34.067Z,8.03
2018-03-24T12:36:02.266Z,7.77
2018-03-24T12:38:30.369Z,7.07
2018-03-24T12:41:02.711Z,8.17
2018-03-24T12:43:31.550Z,7.53
2018-03-24T12:45:59.671Z,8.00
2018-03-24T12:48:27.826Z,8.37
2018-03-24T12:50:55.960Z,9.60
2018-03-24T12:53:24.151Z,9.33
2018-03-24T12:55:52.324Z,8.20
2018-03-24T12:58:20.471Z,7.67
2018-03-24T13:00:48.592Z,8.27
2018-03-24T13:16:11.724Z,8.20
2018-03-24T13:18:40.644Z,8.80
2018-03-24T13:21:08.773Z,8.60
2018-03-24T13:23:36.917Z,8.00
2018-03-24T13:26:05.057Z,7.63
2018-03-24T13:28:33.167Z,8.90
2018-03-24T13:31:05.869Z,9.03
2018-03-24T13:33:34.859Z,9.37
2018-03-24T13:36:03.009Z,9.03
2018-03-24T13:38:31.297Z,9.80
2018-03-24T13:40:59.822Z,10.50
2018-03-24T13:43:27.948Z,10.07
2018-03-24T13:45:56.690Z,9.67
2018-03-24T13:48:25.479Z,9.90
2018-03-24T13:50:54.465Z,8.03
2018-03-24T13:53:22.705Z,10.13
2018-03-24T13:55:50.833Z,10.10
2018-03-24T13:58:18.980Z,10.70
2018-03-24T14:00:47.873Z,10.67
2018-03-24T14:03:16.008Z,9.40
2018-03-24T14:05:44.127Z,10.13
2018-03-24T14:08:12.303Z,10.70
2018-03-24T14:10:40.416Z,10.77
2018-03-24T14:13:08.520Z,9.80
2018-03-24T14:15:36.662Z,10.40
2018-03-24T14:18:04.763Z,9.50
2018-03-24T14:20:33.648Z,9.97
2018-03-24T14:23:01.800Z,10.10
2018-03-24T14:25:30.006Z,10.20
2018-03-24T14:27:58.886Z,10.40
2018-03-24T14:30:26.990Z,10.67
2018-03-24T14:32:55.136Z,10.37
2018-03-24T14:35:23.248Z,10.60
2018-03-24T14:37:51.384Z,10.13
2018-03-24T14:40:20.323Z,10.83
2018-03-24T14:42:48.456Z,10.57
2018-03-24T14:45:16.577Z,10.73
2018-03-24T14:47:44.688Z,10.97
2018-03-24T14:50:12.849Z,10.57
2018-03-24T14:52:40.993Z,10.53
2018-03-24T14:55:09.123Z,10.83
2018-03-24T14:57:37.284Z,10.43
2018-03-24T15:00:05.440Z,10.80
2018-03-24T15:02:33.583Z,11.00
2018-03-24T15:05:01.707Z,10.77
2018-03-24T15:07:29.875Z,10.63
2018-03-24T15:09:58.847Z,10.73
2018-03-24T15:12:27.020Z,10.83
2018-03-24T15:14:55.098Z,11.83
2018-03-24T15:17:23.228Z,11.27
2018-03-24T15:19:51.399Z,11.47
2018-03-24T15:22:19.534Z,12.40
2018-03-24T15:24:49.250Z,11.97
2018-03-24T15:27:17.447Z,11.53
2018-03-24T15:30:03.384Z,11.47
2018-03-24T15:35:35.746Z,11.43
2018-03-24T15:38:03.900Z,12.13
2018-03-24T15:40:32.042Z,11.50
2018-03-24T15:43:00.214Z,11.83
2018-03-24T15:45:28.334Z,12.83
2018-03-24T15:47:56.464Z,11.63
2018-03-24T15:50:24.630Z,12.63
2018-03-24T15:52:53.020Z,12.20
2018-03-24T15:55:21.181Z,12.27
2018-03-24T15:57:49.320Z,11.63
2018-03-24T16:00:17.449Z,12.20
2018-03-24T16:02:46.341Z,11.23
2018-03-24T16:05:14.495Z,12.77
2018-03-24T16:07:42.667Z,11.80
2018-03-24T16:10:12.003Z,12.60
2018-03-24T16:12:40.969Z,12.90
2018-03-24T16:15:09.114Z,11.93
2018-03-24T16:17:37.242Z,12.47
2018-03-24T16:20:06.186Z,11.80
2018-03-24T16:22:34.375Z,13.00
2018-03-24T16:25:06.336Z,12.43
2018-03-24T16:27:34.620Z,12.17
2018-03-24T16:30:02.838Z,11.37
2018-03-24T16:32:31.011Z,12.50
2018-03-24T16:34:59.138Z,12.67
2018-03-24T16:37:27.308Z,12.03
2018-03-24T16:39:56.316Z,12.90
2018-03-24T16:42:24.447Z,12.20
2018-03-24T16:44:52.654Z,11.80
2018-03-24T16:47:20.791Z,12.07
2018-03-24T16:49:48.950Z,12.70
2018-03-24T16:52:17.190Z,12.20
2018-03-24T16:54:45.376Z,12.20
2018-03-24T16:57:14.384Z,12.17
2018-03-24T16:59:44.297Z,12.20
2018-03-24T17:02:13.297Z,11.03
2018-03-24T17:04:42.194Z,12.03
2018-03-24T17:07:10.378Z,12.87
2018-03-24T17:09:38.498Z,12.20
2018-03-24T17:12:06.635Z,11.27
2018-03-24T17:14:34.769Z,11.63
2018-03-24T17:17:03.660Z,11.77
2018-03-24T17:19:32.687Z,12.63
2018-03-24T17:22:01.328Z,13.17
2018-03-24T17:24:29.784Z,12.13
2018-03-24T17:26:58.839Z,13.07
2018-03-24T17:29:26.977Z,11.63
2018-03-24T17:31:55.131Z,12.13
2018-03-24T17:34:23.645Z,12.27
2018-03-24T17:36:52.561Z,11.77
2018-03-24T17:39:20.690Z,11.73
2018-03-24T17:41:48.893Z,12.60
2018-03-24T17:44:17.798Z,13.03
2018-03-24T17:46:45.949Z,13.03
2018-03-24T17:49:14.091Z,13.43
2018-03-24T17:51:42.221Z,13.00
2018-03-24T17:54:10.356Z,13.43
2018-03-24T17:56:39.326Z,14.60
2018-03-24T17:59:07.624Z,13.43
2018-03-24T18:01:35.828Z,13.07
2018-03-24T18:04:04.727Z,12.70
2018-03-24T18:06:32.852Z,14.53
2018-03-24T18:09:01.068Z,14.03
2018-03-24T18:11:29.222Z,13.30
2018-03-24T18:13:57.326Z,12.47
2018-03-24T18:16:32.030Z,12.67
2018-03-24T18:19:03.554Z,13.30
2018-03-24T18:21:31.805Z,12.57
2018-03-24T18:24:00.550Z,15.60
2018-03-24T18:26:29.809Z,16.37
2018-03-24T18:28:58.063Z,15.53
2018-03-24T18:31:26.292Z,14.37
2018-03-24T18:33:54.653Z,13.97
2018-03-24T18:36:22.831Z,13.50
2018-03-24T18:38:51.305Z,13.50
2018-03-24T18:41:19.502Z,15.30
2018-03-24T18:43:50.148Z,13.20
2018-03-24T18:46:18.481Z,14.00
2018-03-24T18:48:47.308Z,13.27
2018-03-24T18:51:16.211Z,13.47
2018-03-24T18:53:45.970Z,13.83
2018-03-24T18:56:14.099Z,12.97
2018-03-24T18:58:42.247Z,12.47
2018-03-24T19:01:12.459Z,12.50
2018-03-24T19:03:41.250Z,12.57
2018-03-24T19:06:09.430Z,12.47
2018-03-24T19:08:38.148Z,12.87
2018-03-24T19:11:06.613Z,12.03
2018-03-24T19:13:34.850Z,11.77
2018-03-24T19:16:02.988Z,10.93
2018-03-24T19:18:31.191Z,16.75
2018-03-24T19:20:59.325Z,12.20
2018-03-24T19:23:27.600Z,11.10
2018-03-24T19:25:55.889Z,11.10
2018-03-24T19:28:24.165Z,11.97
2018-03-24T19:30:52.318Z,11.03
2018-03-24T19:33:21.266Z,11.23
2018-03-24T19:35:49.404Z,10.73
2018-03-24T19:38:18.684Z,11.30
2018-03-24T19:40:47.392Z,10.90
2018-03-24T19:43:15.562Z,11.40
2018-03-24T19:45:43.712Z,10.07
2018-03-24T19:48:11.868Z,9.13
2018-03-24T19:50:40.039Z,9.77
2018-03-24T19:53:08.236Z,9.13
2018-03-24T19:55:36.453Z,11.30
2018-03-24T19:58:04.660Z,9.93
2018-03-24T20:00:32.835Z,9.83
2018-03-24T20:03:01.013Z,9.63
2018-03-24T20:05:29.140Z,9.17
2018-03-24T20:07:57.320Z,8.53
2018-03-24T20:10:25.483Z,9.13
2018-03-24T20:12:54.369Z,8.63
2018-03-24T20:15:23.271Z,8.43
2018-03-24T20:17:58.300Z,10.83
2018-03-24T20:20:26.438Z,10.37
2018-03-24T20:22:54.603Z,9.57
2018-03-24T20:25:22.725Z,9.90
2018-03-24T20:27:50.895Z,9.83
2018-03-24T20:30:19.038Z,9.87
2018-03-24T20:32:47.173Z,10.33
2018-03-24T20:35:15.303Z,11.03
2018-03-24T20:37:44.308Z,9.73
2018-03-24T20:40:12.484Z,9.90
2018-03-24T20:42:40.625Z,9.60
2018-03-24T20:45:08.826Z,10.67
2018-03-24T20:47:36.994Z,11.27
2018-03-24T20:50:05.955Z,11.87
2018-03-24T20:52:34.128Z,10.87
2018-03-24T20:55:02.357Z,10.93
2018-03-24T20:57:30.682Z,11.00
2018-03-24T20:59:58.857Z,11.10
2018-03-24T21:02:27.044Z,10.57
2018-03-24T21:04:55.706Z,11.33
2018-03-24T21:07:23.998Z,11.90
2018-03-24T21:09:52.912Z,14.30
2018-03-24T21:12:21.945Z,12.00
2018-03-24T21:14:50.067Z,11.27
2018-03-24T21:17:19.027Z,10.10
2018-03-24T21:19:47.160Z,11.13
2018-03-24T21:22:16.448Z,11.47
2018-03-24T21:24:45.412Z,11.80
2018-03-24T21:27:17.611Z,12.00
2018-03-24T21:29:46.749Z,12.97
2018-03-24T21:32:14.961Z,11.47
2018-03-24T21:34:43.261Z,11.60
2018-03-24T21:37:12.466Z,11.37
2018-03-24T21:39:41.611Z,12.07
2018-03-24T21:42:09.890Z,12.13
2018-03-24T21:44:38.079Z,11.80
2018-03-24T21:47:06.262Z,11.33
